Time;durP1;ratioP1;P1;durP2;ratioP2;P2;SDS_P1;SDS_P2;PMS_P1;PMS_P2;Temp;Humidity;BMP_temperature;BMP_pressure;BME280_temperature;BME280_humidity;BME280_pressure;Samples;Min_cycle;Max_cycle;Signal;HPM_P1;HPM_P2
2023/09/03 00:00:31;;;;;;;9.00;8.13;;;17.30;99.90;;;;;;4975626;28;20085;-82
2023/09/03 00:02:57;;;;;;;9.15;8.45;;;17.20;99.90;;;;;;4976093;28;20495;-82
2023/09/03 00:05:22;;;;;;;10.27;9.40;;;17.20;99.90;;;;;;4973926;28;20038;-82
2023/09/03 00:07:49;;;;;;;8.70;8.00;;;17.20;99.90;;;;;;4974658;28;20406;-82
2023/09/03 00:10:15;;;;;;;8.80;8.20;;;17.20;99.90;;;;;;4975875;28;20498;-82
2023/09/03 00:12:41;;;;;;;10.40;8.70;;;17.20;99.90;;;;;;4974434;28;20110;-82
2023/09/03 00:15:07;;;;;;;9.07;8.30;;;17.10;99.90;;;;;;4974147;28;20030;-82
2023/09/03 00:17:33;;;;;;;8.88;8.07;;;17.10;99.90;;;;;;4974349;28;20027;-82
2023/09/03 00:19:58;;;;;;;9.05;8.23;;;17.10;99.90;;;;;;4966766;28;20042;-82
2023/09/03 00:22:24;;;;;;;9.50;8.52;;;17.00;99.90;;;;;;4974486;28;20027;-83
2023/09/03 00:24:49;;;;;;;9.80;8.95;;;17.00;99.90;;;;;;4970926;28;20043;-83
2023/09/03 00:27:15;;;;;;;9.13;8.25;;;16.90;99.90;;;;;;4955655;29;20031;-82
2023/09/03 00:29:41;;;;;;;9.60;8.75;;;16.90;99.90;;;;;;4970754;28;20387;-82
2023/09/03 00:32:06;;;;;;;9.48;8.63;;;16.90;99.90;;;;;;4966661;28;20034;-82
2023/09/03 00:34:32;;;;;;;9.00;8.20;;;16.80;99.90;;;;;;4967053;28;20161;-82
2023/09/03 00:36:58;;;;;;;9.85;7.55;;;16.70;99.90;;;;;;4956808;28;20063;-82
2023/09/03 00:39:24;;;;;;;8.25;7.60;;;16.80;99.90;;;;;;4956363;28;20042;-82
2023/09/03 00:41:50;;;;;;;8.30;7.60;;;16.70;99.90;;;;;;4954950;29;20486;-83
2023/09/03 00:44:16;;;;;;;8.70;8.00;;;16.70;99.90;;;;;;4964745;28;20038;-82
2023/09/03 00:46:45;;;;;;;8.23;7.63;;;16.70;99.90;;;;;;4966797;28;20031;-82
2023/09/03 00:49:13;;;;;;;9.82;7.70;;;16.70;99.90;;;;;;4968451;28;20557;-83
2023/09/03 00:51:39;;;;;;;9.43;8.30;;;16.80;99.90;;;;;;4969545;28;20082;-82
2023/09/03 00:54:06;;;;;;;8.50;7.70;;;16.80;99.90;;;;;;4955685;29;20019;-84
2023/09/03 00:56:32;;;;;;;9.27;7.82;;;16.80;99.90;;;;;;4957516;28;20034;-82
2023/09/03 00:59:00;;;;;;;10.43;8.15;;;17.00;99.90;;;;;;4960656;28;20372;-82
2023/09/03 01:01:27;;;;;;;8.05;7.28;;;17.30;99.90;;;;;;4974400;28;20034;-83
2023/09/03 01:03:56;;;;;;;9.02;7.18;;;16.80;99.90;;;;;;4965342;28;20398;-82
2023/09/03 01:06:22;;;;;;;8.52;7.35;;;17.20;99.90;;;;;;4955589;29;20118;-82
2023/09/03 01:08:47;;;;;;;8.32;7.55;;;16.80;99.90;;;;;;4964860;28;20461;-82
2023/09/03 01:11:13;;;;;;;7.93;7.40;;;16.80;99.90;;;;;;4957862;28;20035;-82
2023/09/03 01:13:47;;;;;;;7.90;7.20;;;16.70;99.90;;;;;;4969381;28;20027;-82
2023/09/03 01:16:21;;;;;;;9.02;7.57;;;16.70;99.90;;;;;;4954809;29;20391;-82
2023/09/03 01:18:48;;;;;;;8.63;7.82;;;17.50;99.90;;;;;;4963425;28;20065;-82
2023/09/03 01:21:54;;;;;;;8.38;7.60;;;16.70;99.90;;;;;;4971975;28;20027;-82
2023/09/03 01:24:29;;;;;;;8.63;7.82;;;16.70;99.90;;;;;;4937652;29;20043;-83
2023/09/03 01:27:19;;;;;;;12.45;8.60;;;16.70;99.90;;;;;;4970223;28;20031;-82
2023/09/03 01:29:46;;;;;;;8.27;7.57;;;16.70;99.90;;;;;;4970826;28;20024;-82
2023/09/03 01:32:13;;;;;;;8.23;7.63;;;16.60;99.90;;;;;;4974635;28;20034;-82
2023/09/03 01:34:40;;;;;;;8.55;7.88;;;16.60;99.90;;;;;;4959314;28;20063;-83
2023/09/03 01:37:08;;;;;;;8.18;7.38;;;16.60;99.90;;;;;;4973792;28;20053;-83
2023/09/03 01:39:34;;;;;;;8.23;6.88;;;16.60;99.90;;;;;;4973966;28;20027;-83
2023/09/03 01:41:59;;;;;;;7.97;7.45;;;16.60;99.90;;;;;;4974117;28;20078;-83
2023/09/03 01:44:25;;;;;;;8.02;7.22;;;16.50;99.90;;;;;;4971005;28;20042;-83
2023/09/03 01:46:56;;;;;;;7.72;7.05;;;16.50;99.90;;;;;;4958580;28;20035;-83
2023/09/03 01:49:29;;;;;;;7.60;7.00;;;16.50;99.90;;;;;;4969015;28;20026;-82
2023/09/03 01:52:11;;;;;;;7.93;7.32;;;16.50;99.90;;;;;;4973521;28;20019;-83
2023/09/03 01:54:40;;;;;;;8.30;7.55;;;16.50;99.90;;;;;;4970763;28;20035;-82
2023/09/03 01:57:12;;;;;;;7.65;7.07;;;16.50;99.90;;;;;;4973338;28;20037;-81
2023/09/03 01:59:45;;;;;;;8.15;7.43;;;16.40;99.90;;;;;;4953832;29;20034;-83
2023/09/03 02:02:12;;;;;;;7.78;7.18;;;16.30;99.90;;;;;;4954445;29;20042;-83
2023/09/03 02:04:39;;;;;;;8.70;7.90;;;16.30;99.90;;;;;;4964076;28;20039;-84
2023/09/03 02:07:05;;;;;;;9.40;7.50;;;16.30;99.90;;;;;;4958816;28;20058;-83
2023/09/03 02:09:31;;;;;;;8.02;7.25;;;16.30;99.90;;;;;;4970644;28;20098;-82
2023/09/03 02:11:57;;;;;;;8.30;7.60;;;16.20;99.90;;;;;;4973103;28;20383;-83
2023/09/03 02:14:23;;;;;;;7.85;7.25;;;16.20;99.90;;;;;;4973815;28;20041;-85
2023/09/03 02:16:50;;;;;;;7.78;7.10;;;16.20;99.90;;;;;;4970060;28;20485;-84
2023/09/03 02:19:16;;;;;;;9.15;8.35;;;16.30;99.90;;;;;;4963070;28;20114;-84
2023/09/03 02:21:41;;;;;;;7.82;6.63;;;16.30;99.90;;;;;;4960638;28;20110;-84
2023/09/03 02:24:07;;;;;;;8.63;7.07;;;16.30;99.90;;;;;;4973217;28;20077;-85
2023/09/03 02:26:38;;;;;;;7.00;6.50;;;16.40;99.90;;;;;;4972406;28;20085;-84
2023/09/03 02:29:04;;;;;;;9.60;8.10;;;16.40;99.90;;;;;;4970973;28;20502;-83
2023/09/03 02:31:29;;;;;;;8.10;7.32;;;16.40;99.90;;;;;;4973346;28;20031;-83
2023/09/03 02:33:55;;;;;;;8.50;7.80;;;16.30;99.90;;;;;;4962938;28;20094;-84
2023/09/03 02:36:20;;;;;;;7.25;6.65;;;16.30;99.90;;;;;;4954129;29;20110;-83
2023/09/03 02:38:46;;;;;;;7.90;7.10;;;16.90;99.90;;;;;;4958141;28;20031;-83
2023/09/03 02:41:12;;;;;;;7.55;6.85;;;16.30;99.90;;;;;;4972415;28;20026;-83
2023/09/03 02:43:37;;;;;;;8.27;7.53;;;16.30;99.90;;;;;;4958350;28;20042;-83
2023/09/03 02:46:03;;;;;;;8.02;7.22;;;16.30;99.90;;;;;;4973075;28;20057;-83
2023/09/03 02:48:28;;;;;;;8.18;7.53;;;16.30;99.90;;;;;;4970007;28;20058;-83
2023/09/03 02:50:54;;;;;;;8.43;7.70;;;16.30;99.90;;;;;;4960018;28;20027;-83
2023/09/03 02:53:19;;;;;;;7.32;6.72;;;16.30;99.90;;;;;;4971574;28;20023;-83
2023/09/03 02:55:45;;;;;;;8.35;7.55;;;16.60;99.90;;;;;;4972290;28;20177;-83
2023/09/03 02:58:10;;;;;;;10.60;9.75;;;16.30;99.90;;;;;;4967293;28;20035;-83
2023/09/03 03:00:36;;;;;;;10.18;9.23;;;16.50;99.90;;;;;;4968857;28;20035;-83
2023/09/03 03:03:02;;;;;;;9.00;8.25;;;16.30;99.90;;;;;;4953181;29;20051;-83
2023/09/03 03:05:27;;;;;;;11.30;8.95;;;16.30;99.90;;;;;;4953760;29;20043;-83
2023/09/03 03:07:55;;;;;;;9.90;8.02;;;16.40;99.90;;;;;;4953047;29;20103;-83
2023/09/03 03:10:20;;;;;;;9.52;8.73;;;16.40;99.90;;;;;;4953383;29;20035;-83
2023/09/03 03:12:46;;;;;;;9.10;8.40;;;16.40;99.90;;;;;;4960974;28;20035;-83
2023/09/03 03:15:12;;;;;;;8.75;7.95;;;16.40;99.90;;;;;;4963117;28;20432;-83
2023/09/03 03:17:37;;;;;;;8.82;8.05;;;16.40;99.90;;;;;;4959864;28;20085;-83
2023/09/03 03:20:03;;;;;;;11.82;7.97;;;16.40;99.90;;;;;;4953379;29;20038;-83
2023/09/03 03:22:29;;;;;;;9.20;7.82;;;16.40;99.90;;;;;;4968740;28;20018;-82
2023/09/03 03:24:54;;;;;;;9.63;8.85;;;16.40;99.90;;;;;;4976330;28;20133;-82
2023/09/03 03:27:20;;;;;;;9.43;8.65;;;16.40;99.90;;;;;;4971107;28;20034;-82
2023/09/03 03:29:46;;;;;;;9.15;8.25;;;16.40;99.90;;;;;;4956674;29;20042;-82
2023/09/03 03:32:11;;;;;;;9.75;8.45;;;16.50;99.90;;;;;;4957133;29;20059;-82
2023/09/03 03:34:41;;;;;;;9.00;8.18;;;16.50;99.90;;;;;;4964160;28;20031;-82
2023/09/03 03:37:06;;;;;;;9.47;8.67;;;16.50;99.90;;;;;;4958960;28;20035;-84
2023/09/03 03:39:32;;;;;;;10.85;7.97;;;16.50;99.90;;;;;;4973768;28;20081;-83
2023/09/03 03:41:57;;;;;;;8.68;8.02;;;16.50;99.90;;;;;;4976613;28;20121;-83
2023/09/03 03:44:23;;;;;;;8.10;7.38;;;16.40;99.90;;;;;;4975414;28;20085;-82
2023/09/03 03:46:49;;;;;;;8.50;7.75;;;16.40;99.90;;;;;;4962512;28;20031;-83
2023/09/03 03:49:14;;;;;;;8.38;7.57;;;16.40;99.90;;;;;;4971125;28;20042;-84
2023/09/03 03:51:40;;;;;;;8.15;6.90;;;16.30;99.90;;;;;;4975220;28;20054;-82
2023/09/03 03:54:05;;;;;;;8.63;7.93;;;16.30;99.90;;;;;;4976409;28;20110;-82
2023/09/03 03:56:31;;;;;;;8.75;7.95;;;16.20;99.90;;;;;;4975261;28;20045;-82
2023/09/03 03:58:57;;;;;;;8.38;7.63;;;16.20;99.90;;;;;;4966403;28;20035;-83
2023/09/03 04:01:26;;;;;;;7.68;7.07;;;16.20;99.90;;;;;;4959387;28;20023;-84
2023/09/03 04:03:52;;;;;;;8.07;7.47;;;16.10;99.90;;;;;;4963067;28;20033;-84
2023/09/03 04:06:19;;;;;;;8.52;7.82;;;16.20;99.90;;;;;;4975161;28;20463;-84
2023/09/03 04:08:45;;;;;;;8.45;7.55;;;16.20;99.90;;;;;;4974649;28;20019;-82
2023/09/03 04:11:16;;;;;;;8.57;7.80;;;16.10;99.90;;;;;;4970910;28;20058;-84
2023/09/03 04:13:42;;;;;;;8.18;7.47;;;16.10;99.90;;;;;;4960442;28;20380;-84
2023/09/03 04:16:09;;;;;;;9.30;8.50;;;16.10;99.90;;;;;;4956309;29;20035;-84
2023/09/03 04:18:35;;;;;;;10.00;9.20;;;16.10;99.90;;;;;;4955574;29;20019;-82
2023/09/03 04:21:00;;;;;;;9.55;8.77;;;16.10;99.90;;;;;;4958071;28;20133;-84
2023/09/03 04:23:26;;;;;;;9.98;9.07;;;16.10;99.90;;;;;;4974711;28;20030;-84
2023/09/03 04:25:52;;;;;;;10.05;8.50;;;16.10;99.90;;;;;;4959070;28;20448;-84
2023/09/03 04:28:19;;;;;;;9.85;8.50;;;16.10;99.90;;;;;;4956147;29;20051;-83
2023/09/03 04:30:45;;;;;;;9.38;8.68;;;16.10;99.90;;;;;;4972605;28;20031;-83
2023/09/03 04:33:10;;;;;;;10.35;9.45;;;17.00;99.90;;;;;;4972089;28;20027;-84
2023/09/03 04:35:37;;;;;;;9.48;8.68;;;16.00;99.90;;;;;;4958097;28;20050;-84
2023/09/03 04:38:03;;;;;;;10.95;9.77;;;16.10;99.90;;;;;;4975561;28;20034;-83
2023/09/03 04:40:33;;;;;;;9.18;8.30;;;16.10;99.90;;;;;;4955189;29;20038;-83
2023/09/03 04:42:59;;;;;;;14.00;9.07;;;16.10;99.90;;;;;;4972573;28;20391;-83
2023/09/03 04:45:24;;;;;;;10.25;9.25;;;16.10;99.90;;;;;;4975370;28;20043;-83
2023/09/03 04:47:50;;;;;;;10.50;9.50;;;16.10;99.90;;;;;;4963732;28;20042;-83
2023/09/03 04:50:15;;;;;;;10.48;9.50;;;16.10;99.90;;;;;;4975291;28;20145;-83
2023/09/03 04:52:44;;;;;;;10.73;9.85;;;16.10;99.90;;;;;;4974637;28;20027;-83
2023/09/03 04:55:11;;;;;;;10.27;9.27;;;16.10;99.90;;;;;;4974543;28;20027;-83
2023/09/03 04:57:36;;;;;;;11.35;10.35;;;16.10;99.90;;;;;;4974804;28;20080;-84
2023/09/03 05:00:04;;;;;;;11.00;10.07;;;16.10;99.90;;;;;;4974033;28;20114;-81
2023/09/03 05:02:29;;;;;;;11.90;10.80;;;16.20;99.90;;;;;;4973665;28;20027;-83
2023/09/03 05:04:55;;;;;;;10.88;9.75;;;16.20;99.90;;;;;;4974632;28;20401;-83
2023/09/03 05:07:21;;;;;;;10.80;9.73;;;16.20;99.90;;;;;;4969986;28;20043;-84
2023/09/03 05:09:46;;;;;;;12.95;9.57;;;16.20;99.90;;;;;;4973994;28;20045;-83
2023/09/03 05:12:12;;;;;;;10.63;9.77;;;16.00;99.90;;;;;;4972705;28;20030;-83
2023/09/03 05:14:37;;;;;;;10.85;9.80;;;16.30;99.90;;;;;;4965965;28;20038;-83
2023/09/03 05:17:03;;;;;;;11.38;10.38;;;16.10;99.90;;;;;;4971740;28;20027;-82
2023/09/03 05:19:29;;;;;;;11.52;10.45;;;16.10;99.90;;;;;;4955554;29;20030;-82
2023/09/03 05:21:54;;;;;;;11.70;10.60;;;16.10;99.90;;;;;;4955198;28;20031;-82
2023/09/03 05:24:20;;;;;;;11.45;10.40;;;16.10;99.90;;;;;;4964186;28;20051;-83
2023/09/03 05:26:48;;;;;;;12.38;11.07;;;16.10;99.90;;;;;;4954725;29;20381;-83
2023/09/03 05:29:14;;;;;;;13.27;10.48;;;16.10;99.90;;;;;;4954406;29;20109;-83
2023/09/03 05:31:39;;;;;;;11.18;10.23;;;16.10;99.90;;;;;;4954754;29;20054;-83
2023/09/03 05:34:05;;;;;;;11.38;10.45;;;16.70;99.90;;;;;;4956698;28;20475;-83
2023/09/03 05:36:30;;;;;;;12.32;11.23;;;16.20;99.90;;;;;;4973183;28;20074;-82
2023/09/03 05:38:56;;;;;;;11.85;10.60;;;16.20;99.90;;;;;;4964242;28;20038;-83
2023/09/03 05:41:21;;;;;;;12.27;10.98;;;16.20;99.90;;;;;;4973540;28;20027;-82
2023/09/03 05:43:51;;;;;;;11.40;10.25;;;16.20;99.90;;;;;;4972000;28;20027;-82
2023/09/03 05:46:16;;;;;;;11.35;10.43;;;16.20;99.90;;;;;;4971131;28;20780;-83
2023/09/03 05:48:42;;;;;;;10.93;10.00;;;16.20;99.90;;;;;;4971406;28;20038;-83
2023/09/03 05:51:08;;;;;;;11.60;10.50;;;16.20;99.90;;;;;;4972916;28;20061;-83
2023/09/03 05:53:34;;;;;;;11.45;10.32;;;16.30;99.90;;;;;;4973455;28;20468;-82
2023/09/03 05:56:10;;;;;;;12.23;11.02;;;16.30;99.90;;;;;;4973500;28;20034;-83
2023/09/03 05:58:36;;;;;;;12.38;11.05;;;16.20;99.90;;;;;;4972673;28;20058;-82
2023/09/03 06:01:06;;;;;;;11.40;10.30;;;16.10;99.90;;;;;;4973362;28;20019;-82
2023/09/03 06:03:32;;;;;;;11.13;10.13;;;16.10;99.90;;;;;;4973196;28;20530;-82
2023/09/03 06:06:08;;;;;;;10.73;9.73;;;16.00;99.90;;;;;;4971279;28;20086;-83
2023/09/03 06:08:38;;;;;;;11.15;9.77;;;16.00;99.90;;;;;;4971621;28;20019;-82
2023/09/03 06:11:05;;;;;;;10.00;9.10;;;16.00;99.90;;;;;;4972451;28;20026;-83
2023/09/03 06:13:33;;;;;;;10.80;9.65;;;16.10;99.90;;;;;;4972708;28;20525;-83
2023/09/03 06:15:58;;;;;;;11.38;10.43;;;16.10;99.90;;;;;;4972942;28;20023;-83
2023/09/03 06:18:25;;;;;;;11.45;10.35;;;16.10;99.90;;;;;;4968496;28;20117;-84
2023/09/03 06:20:51;;;;;;;11.70;10.63;;;16.20;99.90;;;;;;4958547;28;20373;-84
2023/09/03 06:23:18;;;;;;;11.43;10.30;;;16.10;99.90;;;;;;4968278;28;20491;-85
2023/09/03 06:25:49;;;;;;;12.32;11.05;;;16.10;99.90;;;;;;4934876;28;20067;-85
2023/09/03 06:28:15;;;;;;;11.35;10.25;;;16.10;99.90;;;;;;4948233;29;20542;-84
2023/09/03 06:30:41;;;;;;;10.60;9.70;;;16.10;99.90;;;;;;4950553;29;20023;-84
2023/09/03 06:33:07;;;;;;;12.32;10.95;;;16.10;99.90;;;;;;4950912;29;20031;-85
2023/09/03 06:35:33;;;;;;;9.98;8.98;;;16.00;99.90;;;;;;4951000;29;20035;-85
2023/09/03 06:37:59;;;;;;;12.25;10.30;;;16.00;99.90;;;;;;4934484;29;20028;-83
2023/09/03 06:40:25;;;;;;;10.48;9.57;;;16.10;99.90;;;;;;4934244;29;20024;-84
2023/09/03 06:42:51;;;;;;;11.18;10.18;;;16.00;99.90;;;;;;4951212;29;20167;-83
2023/09/03 06:45:17;;;;;;;10.90;9.98;;;16.00;99.90;;;;;;4951285;29;20111;-83
2023/09/03 06:47:43;;;;;;;11.02;10.07;;;16.00;99.90;;;;;;4934122;29;20034;-83
2023/09/03 06:50:10;;;;;;;10.88;9.73;;;16.10;99.90;;;;;;4944795;29;20031;-84
2023/09/03 06:52:35;;;;;;;11.45;10.25;;;16.10;99.90;;;;;;4943234;29;20113;-84
2023/09/03 06:55:01;;;;;;;10.82;9.68;;;16.20;99.90;;;;;;4935479;29;20164;-83
2023/09/03 06:57:27;;;;;;;13.30;11.75;;;16.30;99.90;;;;;;4933890;29;20458;-83
2023/09/03 06:59:54;;;;;;;11.73;10.52;;;16.30;99.90;;;;;;4941168;29;20118;-83
2023/09/03 07:02:20;;;;;;;11.45;10.32;;;16.30;99.90;;;;;;4942727;29;20119;-84
2023/09/03 07:04:45;;;;;;;11.38;10.38;;;16.40;99.90;;;;;;4936302;29;20135;-83
2023/09/03 07:07:11;;;;;;;11.77;10.68;;;16.40;99.90;;;;;;4937990;29;20388;-84
2023/09/03 07:09:37;;;;;;;11.88;10.77;;;17.10;99.90;;;;;;4933597;29;20023;-84
2023/09/03 07:12:04;;;;;;;12.68;11.18;;;16.50;99.90;;;;;;4946688;29;20024;-83
2023/09/03 07:14:33;;;;;;;11.55;10.13;;;16.50;99.90;;;;;;4950271;29;20031;-83
2023/09/03 07:17:00;;;;;;;12.93;11.70;;;16.50;99.90;;;;;;4951137;29;20467;-83
2023/09/03 07:19:27;;;;;;;11.93;10.82;;;16.60;99.90;;;;;;4938532;29;20031;-84
2023/09/03 07:21:53;;;;;;;13.15;11.07;;;16.60;99.90;;;;;;4941091;29;20027;-83
2023/09/03 07:24:18;;;;;;;12.82;11.52;;;16.70;99.90;;;;;;4950070;28;20110;-83
2023/09/03 07:26:44;;;;;;;12.80;11.25;;;17.10;99.90;;;;;;4951846;29;20059;-83
2023/09/03 07:29:10;;;;;;;12.40;11.25;;;17.30;99.90;;;;;;4954947;28;20432;-83
2023/09/03 07:31:40;;;;;;;12.15;10.88;;;16.80;99.90;;;;;;4953380;28;20054;-84
2023/09/03 07:34:07;;;;;;;12.73;11.63;;;16.80;99.90;;;;;;4955833;28;20028;-84
2023/09/03 07:36:33;;;;;;;12.73;11.63;;;16.90;99.90;;;;;;4956124;28;20085;-82
2023/09/03 07:38:59;;;;;;;12.15;10.95;;;16.90;99.90;;;;;;4955301;28;20047;-83
2023/09/03 07:41:24;;;;;;;12.55;11.32;;;17.00;99.90;;;;;;4959226;28;20097;-83
2023/09/03 07:43:51;;;;;;;14.73;12.40;;;17.00;99.90;;;;;;4950818;29;20049;-82
2023/09/03 07:46:17;;;;;;;12.95;11.60;;;17.00;99.90;;;;;;4952867;28;20497;-83
2023/09/03 07:48:43;;;;;;;19.30;13.52;;;17.10;99.90;;;;;;4951154;29;20031;-83
2023/09/03 07:51:08;;;;;;;14.15;12.75;;;17.10;99.90;;;;;;4949821;29;20027;-82
2023/09/03 07:53:34;;;;;;;13.25;11.93;;;17.10;99.90;;;;;;4948493;29;20038;-82
2023/09/03 07:56:00;;;;;;;13.13;11.77;;;17.20;99.90;;;;;;4951384;29;20059;-83
2023/09/03 07:58:25;;;;;;;14.13;12.73;;;17.30;99.90;;;;;;4951091;29;20483;-83
2023/09/03 08:00:52;;;;;;;13.48;12.18;;;17.30;99.90;;;;;;4950767;29;20471;-84
2023/09/03 08:03:18;;;;;;;15.07;12.13;;;17.30;99.90;;;;;;4950853;29;20031;-84
2023/09/03 08:05:43;;;;;;;13.48;11.85;;;17.30;99.90;;;;;;4957642;28;20061;-82
2023/09/03 08:08:09;;;;;;;14.13;11.65;;;17.40;99.90;;;;;;4956926;28;20063;-83
2023/09/03 08:10:34;;;;;;;16.17;10.98;;;17.40;99.90;;;;;;4959867;28;20035;-82
2023/09/03 08:13:00;;;;;;;13.85;11.45;;;17.50;99.90;;;;;;4954328;28;20518;-83
2023/09/03 08:15:25;;;;;;;11.98;10.95;;;17.50;99.90;;;;;;4956821;28;20027;-89
2023/09/03 08:17:51;;;;;;;12.25;11.02;;;17.50;99.90;;;;;;4953997;29;20031;-84
2023/09/03 08:20:17;;;;;;;11.85;10.77;;;17.50;99.90;;;;;;4954771;29;20162;-85
2023/09/03 08:22:42;;;;;;;11.88;10.68;;;17.60;99.90;;;;;;4954435;29;20029;-85
2023/09/03 08:25:08;;;;;;;11.48;10.35;;;17.60;99.90;;;;;;4944411;28;20048;-83
2023/09/03 08:27:34;;;;;;;12.95;10.32;;;17.70;99.90;;;;;;4939839;29;20039;-84
2023/09/03 08:29:59;;;;;;;10.48;9.52;;;17.70;99.90;;;;;;4942372;29;20019;-85
2023/09/03 08:32:25;;;;;;;12.07;10.98;;;17.70;99.90;;;;;;4952975;29;20113;-84
2023/09/03 08:34:53;;;;;;;12.95;11.60;;;17.80;99.90;;;;;;4946355;29;20028;-84
2023/09/03 08:37:18;;;;;;;12.57;11.30;;;17.80;99.90;;;;;;4953363;29;20039;-84
2023/09/03 08:39:44;;;;;;;12.05;10.90;;;17.90;99.90;;;;;;4952461;29;20050;-84
2023/09/03 08:42:12;;;;;;;11.45;10.38;;;17.80;99.90;;;;;;4953064;29;20811;-87
2023/09/03 08:44:51;;;;;;;11.48;10.40;;;18.20;99.90;;;;;;4935478;29;20115;-86
2023/09/03 08:47:17;;;;;;;11.43;10.23;;;17.90;99.90;;;;;;4947569;29;20043;-84
2023/09/03 08:49:45;;;;;;;10.68;9.50;;;17.90;99.90;;;;;;4938440;29;20031;-86
2023/09/03 08:52:11;;;;;;;10.25;9.35;;;17.90;99.90;;;;;;4954163;29;20035;-80
2023/09/03 08:54:38;;;;;;;9.77;8.70;;;18.00;99.90;;;;;;4949402;29;20114;-83
2023/09/03 08:57:05;;;;;;;10.10;9.15;;;18.10;99.90;;;;;;4953797;29;20102;-84
2023/09/03 08:59:31;;;;;;;10.27;9.23;;;18.10;99.90;;;;;;4953180;29;20031;-87
2023/09/03 09:01:57;;;;;;;11.52;9.48;;;18.20;99.90;;;;;;4952357;29;20039;-84
2023/09/03 09:04:29;;;;;;;11.10;10.00;;;18.70;99.90;;;;;;4948509;29;20035;-83
2023/09/03 09:06:57;;;;;;;10.52;9.63;;;18.20;99.90;;;;;;4947688;29;20046;-83
2023/09/03 09:09:23;;;;;;;10.45;9.45;;;18.30;99.90;;;;;;4953122;29;20034;-83
2023/09/03 09:12:10;;;;;;;11.30;9.52;;;18.30;99.90;;;;;;4944879;29;20031;-83
2023/09/03 09:14:44;;;;;;;9.75;8.55;;;18.30;99.90;;;;;;4944507;29;20051;-84
2023/09/03 09:17:13;;;;;;;8.40;7.70;;;18.40;99.90;;;;;;4947682;29;20083;-84
2023/09/03 09:19:39;;;;;;;8.50;7.80;;;18.40;99.90;;;;;;4945908;28;20019;-84
2023/09/03 09:22:04;;;;;;;9.10;7.90;;;18.50;99.90;;;;;;4944077;29;20490;-84
2023/09/03 09:24:30;;;;;;;7.93;7.32;;;18.50;99.90;;;;;;4955078;28;20057;-83
2023/09/03 09:27:15;;;;;;;7.53;6.68;;;18.60;99.90;;;;;;4965729;28;20077;-83
2023/09/03 09:29:42;;;;;;;6.35;5.57;;;18.60;99.90;;;;;;4961425;28;20025;-84
2023/09/03 09:32:16;;;;;;;6.05;5.55;;;18.70;99.90;;;;;;4964114;28;20023;-84
2023/09/03 09:34:42;;;;;;;8.43;7.63;;;18.70;99.90;;;;;;4964068;28;20034;-84
2023/09/03 09:37:08;;;;;;;8.57;6.80;;;18.80;99.90;;;;;;4968331;28;20046;-84
2023/09/03 09:39:44;;;;;;;6.75;6.15;;;18.80;99.90;;;;;;4965104;28;20644;-83
2023/09/03 09:42:12;;;;;;;10.20;7.05;;;18.90;99.90;;;;;;4962409;28;20023;-84
2023/09/03 09:44:39;;;;;;;9.38;7.13;;;18.90;99.90;;;;;;4962944;28;20031;-83
2023/09/03 09:47:15;;;;;;;6.93;6.32;;;18.90;99.90;;;;;;4965167;28;20031;-83
2023/09/03 09:49:42;;;;;;;6.80;5.78;;;19.00;99.90;;;;;;4965324;28;20046;-83
2023/09/03 09:52:08;;;;;;;6.60;6.03;;;19.00;99.90;;;;;;4964911;28;20035;-82
2023/09/03 09:54:39;;;;;;;7.78;6.25;;;19.10;99.90;;;;;;4964983;28;20026;-82
2023/09/03 09:57:17;;;;;;;5.43;5.00;;;19.10;99.90;;;;;;4963292;28;20085;-82
2023/09/03 09:59:43;;;;;;;6.85;5.78;;;19.20;99.90;;;;;;4965698;28;20022;-81
2023/09/03 10:02:13;;;;;;;7.68;5.68;;;19.20;99.90;;;;;;4967246;28;20027;-81
2023/09/03 10:04:41;;;;;;;5.32;4.93;;;19.20;99.90;;;;;;4964014;28;20014;-80
2023/09/03 10:07:08;;;;;;;7.00;5.80;;;19.30;99.90;;;;;;4964833;28;20038;-81
2023/09/03 10:09:35;;;;;;;6.03;5.53;;;19.30;99.90;;;;;;4966921;28;20105;-80
2023/09/03 10:12:01;;;;;;;12.82;6.03;;;19.30;99.90;;;;;;4964155;28;20419;-81
2023/09/03 10:14:27;;;;;;;6.60;5.68;;;19.30;99.90;;;;;;4967096;28;20027;-82
2023/09/03 10:16:56;;;;;;;5.57;5.18;;;19.40;99.90;;;;;;4966400;28;20030;-84
2023/09/03 10:19:23;;;;;;;7.47;6.22;;;19.50;99.90;;;;;;4966037;28;20387;-83
2023/09/03 10:21:50;;;;;;;7.53;6.90;;;19.50;99.90;;;;;;4967051;28;20035;-82
2023/09/03 10:24:19;;;;;;;6.03;5.05;;;19.50;99.90;;;;;;4958801;28;20055;-95
2023/09/03 10:26:49;;;;;;;6.00;5.30;;;19.60;99.90;;;;;;4963856;29;20035;-96
2023/09/03 10:29:19;;;;;;;6.32;5.72;;;19.60;99.90;;;;;;4969058;28;20456;-92
2023/09/03 10:31:47;;;;;;;;;;;19.60;99.90;;;;;;4951014;28;20046;-94
2023/09/03 10:34:15;;;;;;;7.63;6.03;;;19.70;99.90;;;;;;4951119;29;19907;-93
2023/09/03 10:37:10;;;;;;;6.35;5.78;;;19.70;99.90;;;;;;4945660;29;20050;-91
2023/09/03 10:39:37;;;;;;;8.73;6.07;;;19.70;99.90;;;;;;4952485;29;20364;-95
2023/09/03 10:42:17;;;;;;;8.15;6.35;;;19.70;99.90;;;;;;4969946;29;20035;-93
2023/09/03 10:44:54;;;;;;;5.05;4.55;;;19.80;99.90;;;;;;4954835;29;20483;-89
2023/09/03 10:47:20;;;;;;;5.18;4.13;;;19.80;99.90;;;;;;4957284;29;20019;-93
2023/09/03 10:49:51;;;;;;;6.65;4.70;;;19.80;99.90;;;;;;4942694;29;20488;-86
2023/09/03 10:52:26;;;;;;;4.93;4.45;;;19.80;99.90;;;;;;4952243;29;20031;-90
2023/09/03 10:55:19;;;;;;;5.10;4.30;;;19.90;99.90;;;;;;4938873;29;20028;-88
2023/09/03 10:58:10;;;;;;;4.50;4.20;;;20.00;99.90;;;;;;4950314;29;20038;-88
2023/09/03 11:00:36;;;;;;;7.15;5.90;;;20.00;99.90;;;;;;4936132;29;20468;-89
2023/09/03 11:03:18;;;;;;;6.10;5.40;;;20.00;99.90;;;;;;4950627;29;20376;-88
2023/09/03 11:06:21;;;;;;;6.55;5.40;;;20.10;99.90;;;;;;4935360;29;20036;-89
2023/09/03 11:08:47;;;;;;;6.10;5.03;;;20.10;99.90;;;;;;4897091;29;20117;-88
2023/09/03 11:11:21;;;;;;;5.15;4.65;;;20.10;99.90;;;;;;4944934;29;20032;-89
2023/09/03 11:13:51;;;;;;;5.05;4.45;;;20.20;99.90;;;;;;4948555;29;20031;-88
2023/09/03 11:16:16;;;;;;;;;;;20.20;99.90;;;;;;4943589;29;20318;-89
2023/09/03 11:18:49;;;;;;;6.95;5.40;;;20.20;99.90;;;;;;4942132;29;20009;-85
2023/09/03 11:21:15;;;;;;;5.20;4.70;;;20.30;99.90;;;;;;4937813;29;20043;-94
2023/09/03 11:23:59;;;;;;;5.78;5.28;;;20.30;99.90;;;;;;4957169;28;20035;-92
2023/09/03 11:26:24;;;;;;;5.63;4.82;;;20.30;99.90;;;;;;4951394;28;20042;-94
2023/09/03 11:28:50;;;;;;;5.70;4.90;;;20.40;99.90;;;;;;4965981;28;20027;-93
2023/09/03 11:31:16;;;;;;;4.72;4.32;;;20.50;99.90;;;;;;4959395;28;20089;-91
2023/09/03 11:33:41;;;;;;;4.72;3.33;;;20.40;99.90;;;;;;4969578;28;20046;-92
2023/09/03 11:36:07;;;;;;;5.68;4.10;;;20.90;99.90;;;;;;4967065;28;20398;-89
2023/09/03 11:38:34;;;;;;;3.08;2.72;;;20.50;99.90;;;;;;4961299;28;20027;-90
2023/09/03 11:41:00;;;;;;;4.85;3.15;;;20.60;99.90;;;;;;4962254;28;20066;-90
2023/09/03 11:43:31;;;;;;;3.40;2.55;;;20.60;99.90;;;;;;4972092;28;20050;-91
2023/09/03 11:45:57;;;;;;;3.28;2.80;;;20.70;99.90;;;;;;4969537;28;20509;-91
2023/09/03 11:48:27;;;;;;;3.00;2.70;;;20.60;99.90;;;;;;4966484;28;20031;-91
2023/09/03 11:50:53;;;;;;;5.97;2.63;;;20.70;99.90;;;;;;4970860;28;20055;-91
2023/09/03 11:53:19;;;;;;;2.75;2.55;;;21.20;99.90;;;;;;4967819;28;20062;-91
2023/09/03 11:55:49;;;;;;;3.00;2.67;;;20.70;99.90;;;;;;4971584;28;20102;-91
2023/09/03 11:58:19;;;;;;;3.17;2.30;;;20.80;99.90;;;;;;4965456;28;20023;-85
2023/09/03 12:00:45;;;;;;;2.70;2.47;;;20.80;99.90;;;;;;4975160;28;20034;-83
2023/09/03 12:03:11;;;;;;;3.35;2.40;;;20.90;99.90;;;;;;4970290;28;20019;-84
2023/09/03 12:05:37;;;;;;;2.83;2.05;;;20.90;99.90;;;;;;4963625;28;20126;-84
2023/09/03 12:08:04;;;;;;;2.30;1.90;;;20.90;99.90;;;;;;4959377;28;20070;-85
2023/09/03 12:10:33;;;;;;;2.63;2.45;;;20.90;99.90;;;;;;4974351;28;20026;-84
2023/09/03 12:13:00;;;;;;;2.65;2.35;;;20.90;99.90;;;;;;4967922;28;20098;-84
2023/09/03 12:15:26;;;;;;;3.10;2.78;;;20.90;99.90;;;;;;4964596;28;20035;-84
2023/09/03 12:17:52;;;;;;;5.35;3.22;;;21.00;99.90;;;;;;4973426;28;20031;-84
2023/09/03 12:20:37;;;;;;;3.05;2.15;;;21.00;99.90;;;;;;4957919;28;20038;-83
2023/09/03 12:23:11;;;;;;;2.60;2.40;;;21.00;99.90;;;;;;4974767;28;20023;-86
2023/09/03 12:25:38;;;;;;;2.63;2.42;;;21.00;99.90;;;;;;4966929;28;20043;-86
2023/09/03 12:28:04;;;;;;;2.63;1.92;;;21.10;99.90;;;;;;4966111;28;20414;-86
2023/09/03 12:30:52;;;;;;;1.95;1.75;;;21.10;99.90;;;;;;4974110;28;20027;-86
2023/09/03 12:33:18;;;;;;;2.72;2.17;;;21.10;99.90;;;;;;4973260;28;20038;-84
2023/09/03 12:35:43;;;;;;;2.28;2.08;;;21.20;99.90;;;;;;4973837;28;20026;-84
2023/09/03 12:38:11;;;;;;;2.90;2.70;;;21.40;99.90;;;;;;4973796;28;20031;-86
2023/09/03 12:40:37;;;;;;;4.40;2.83;;;21.20;99.90;;;;;;4975017;28;20065;-85
2023/09/03 12:43:02;;;;;;;3.40;3.10;;;21.20;99.90;;;;;;4974932;28;20475;-84